sensor_id;sensor_type;location;lat;lon;timestamp;P1;durP1;ratioP1;P2;durP2;ratioP2
3755;SDS011;1893;52.526;13.360;2023-03-01T00:00:52;27.07;;;14.37;;
3755;SDS011;1893;52.526;13.360;2023-03-01T00:03:17;28.73;;;13.87;;
3755;SDS011;1893;52.526;13.360;2023-03-01T00:05:44;24.30;;;14.20;;
3755;SDS011;1893;52.526;13.360;2023-03-01T00:08:10;21.65;;;12.75;;
3755;SDS011;1893;52.526;13.360;2023-03-01T00:10:36;32.43;;;14.97;;
3755;SDS011;1893;52.526;13.360;2023-03-01T00:13:01;27.73;;;14.27;;
3755;SDS011;1893;52.526;13.360;2023-03-01T00:15:27;24.97;;;13.70;;
3755;SDS011;1893;52.526;13.360;2023-03-01T00:17:53;23.37;;;14.40;;
3755;SDS011;1893;52.526;13.360;2023-03-01T00:20:18;25.97;;;14.50;;
3755;SDS011;1893;52.526;13.360;2023-03-01T00:22:44;28.77;;;15.50;;
3755;SDS011;1893;52.526;13.360;2023-03-01T00:25:09;27.87;;;15.17;;
3755;SDS011;1893;52.526;13.360;2023-03-01T00:27:35;20.87;;;13.10;;
3755;SDS011;1893;52.526;13.360;2023-03-01T00:30:01;31.03;;;15.47;;
3755;SDS011;1893;52.526;13.360;2023-03-01T00:32:26;25.60;;;13.03;;
3755;SDS011;1893;52.526;13.360;2023-03-01T00:34:52;21.93;;;14.10;;
3755;SDS011;1893;52.526;13.360;2023-03-01T00:37:21;26.53;;;13.40;;
3755;SDS011;1893;52.526;13.360;2023-03-01T00:39:47;25.27;;;14.30;;
3755;SDS011;1893;52.526;13.360;2023-03-01T00:42:13;23.87;;;12.90;;
3755;SDS011;1893;52.526;13.360;2023-03-01T00:44:39;28.73;;;14.77;;
3755;SDS011;1893;52.526;13.360;2023-03-01T00:47:05;26.07;;;14.37;;
3755;SDS011;1893;52.526;13.360;2023-03-01T00:49:30;28.57;;;14.40;;
3755;SDS011;1893;52.526;13.360;2023-03-01T00:51:56;25.43;;;14.70;;
3755;SDS011;1893;52.526;13.360;2023-03-01T00:54:22;28.10;;;14.87;;
3755;SDS011;1893;52.526;13.360;2023-03-01T00:56:47;25.63;;;15.00;;
3755;SDS011;1893;52.526;13.360;2023-03-01T00:59:13;26.33;;;16.20;;
3755;SDS011;1893;52.526;13.360;2023-03-01T01:01:38;25.30;;;15.00;;
3755;SDS011;1893;52.526;13.360;2023-03-01T01:04:08;25.00;;;15.30;;
3755;SDS011;1893;52.526;13.360;2023-03-01T01:06:38;27.90;;;15.97;;
3755;SDS011;1893;52.526;13.360;2023-03-01T01:09:12;34.55;;;16.00;;
3755;SDS011;1893;52.526;13.360;2023-03-01T01:11:42;37.63;;;17.67;;
3755;SDS011;1893;52.526;13.360;2023-03-01T01:14:12;36.27;;;16.97;;
3755;SDS011;1893;52.526;13.360;2023-03-01T01:16:38;33.53;;;18.33;;
3755;SDS011;1893;52.526;13.360;2023-03-01T01:19:04;37.30;;;17.33;;
3755;SDS011;1893;52.526;13.360;2023-03-01T01:21:30;29.40;;;17.53;;
3755;SDS011;1893;52.526;13.360;2023-03-01T01:23:56;38.97;;;18.80;;
3755;SDS011;1893;52.526;13.360;2023-03-01T01:26:23;35.50;;;18.70;;
3755;SDS011;1893;52.526;13.360;2023-03-01T01:28:52;29.73;;;18.10;;
3755;SDS011;1893;52.526;13.360;2023-03-01T01:31:18;31.58;;;17.92;;
3755;SDS011;1893;52.526;13.360;2023-03-01T01:33:45;33.78;;;17.35;;
3755;SDS011;1893;52.526;13.360;2023-03-01T01:36:11;32.22;;;18.27;;
3755;SDS011;1893;52.526;13.360;2023-03-01T01:38:37;28.20;;;16.77;;
3755;SDS011;1893;52.526;13.360;2023-03-01T01:41:03;39.60;;;19.38;;
3755;SDS011;1893;52.526;13.360;2023-03-01T01:43:33;25.67;;;17.20;;
3755;SDS011;1893;52.526;13.360;2023-03-01T01:46:10;34.77;;;18.70;;
3755;SDS011;1893;52.526;13.360;2023-03-01T01:48:56;40.27;;;18.20;;
3755;SDS011;1893;52.526;13.360;2023-03-01T01:51:27;35.63;;;17.63;;
3755;SDS011;1893;52.526;13.360;2023-03-01T01:54:03;31.08;;;16.65;;
3755;SDS011;1893;52.526;13.360;2023-03-01T01:56:36;35.28;;;17.83;;
3755;SDS011;1893;52.526;13.360;2023-03-01T01:59:05;32.13;;;17.07;;
3755;SDS011;1893;52.526;13.360;2023-03-01T02:01:31;29.80;;;17.07;;
3755;SDS011;1893;52.526;13.360;2023-03-01T02:03:56;38.47;;;19.60;;
3755;SDS011;1893;52.526;13.360;2023-03-01T02:06:31;34.97;;;18.92;;
3755;SDS011;1893;52.526;13.360;2023-03-01T02:09:05;29.73;;;16.63;;
3755;SDS011;1893;52.526;13.360;2023-03-01T02:11:36;35.13;;;17.77;;
3755;SDS011;1893;52.526;13.360;2023-03-01T02:14:02;35.40;;;18.73;;
3755;SDS011;1893;52.526;13.360;2023-03-01T02:16:28;26.13;;;17.77;;
3755;SDS011;1893;52.526;13.360;2023-03-01T02:18:56;38.20;;;17.92;;
3755;SDS011;1893;52.526;13.360;2023-03-01T02:23:52;35.83;;;16.70;;
3755;SDS011;1893;52.526;13.360;2023-03-01T02:26:22;33.10;;;18.10;;
3755;SDS011;1893;52.526;13.360;2023-03-01T02:28:54;29.73;;;16.97;;
3755;SDS011;1893;52.526;13.360;2023-03-01T02:31:20;34.50;;;18.67;;
3755;SDS011;1893;52.526;13.360;2023-03-01T02:34:06;35.08;;;19.55;;
3755;SDS011;1893;52.526;13.360;2023-03-01T02:36:42;30.48;;;17.27;;
3755;SDS011;1893;52.526;13.360;2023-03-01T02:39:18;34.72;;;17.15;;
3755;SDS011;1893;52.526;13.360;2023-03-01T02:41:53;28.90;;;17.50;;
3755;SDS011;1893;52.526;13.360;2023-03-01T02:44:21;38.10;;;18.20;;
3755;SDS011;1893;52.526;13.360;2023-03-01T02:46:48;24.40;;;15.98;;
3755;SDS011;1893;52.526;13.360;2023-03-01T02:49:19;33.03;;;17.40;;
3755;SDS011;1893;52.526;13.360;2023-03-01T02:57:29;32.10;;;15.50;;
3755;SDS011;1893;52.526;13.360;2023-03-01T02:59:57;35.00;;;17.50;;
3755;SDS011;1893;52.526;13.360;2023-03-01T03:02:31;26.27;;;16.08;;
3755;SDS011;1893;52.526;13.360;2023-03-01T03:05:02;30.08;;;18.40;;
3755;SDS011;1893;52.526;13.360;2023-03-01T03:07:31;28.10;;;17.25;;
3755;SDS011;1893;52.526;13.360;2023-03-01T03:09:59;29.73;;;17.13;;
3755;SDS011;1893;52.526;13.360;2023-03-01T03:12:25;29.87;;;16.93;;
3755;SDS011;1893;52.526;13.360;2023-03-01T03:14:50;34.70;;;17.10;;
3755;SDS011;1893;52.526;13.360;2023-03-01T03:17:16;30.10;;;16.97;;
3755;SDS011;1893;52.526;13.360;2023-03-01T03:19:41;27.03;;;17.47;;
3755;SDS011;1893;52.526;13.360;2023-03-01T03:22:10;27.02;;;17.20;;
3755;SDS011;1893;52.526;13.360;2023-03-01T03:24:36;31.25;;;16.60;;
3755;SDS011;1893;52.526;13.360;2023-03-01T03:27:03;34.03;;;17.02;;
3755;SDS011;1893;52.526;13.360;2023-03-01T03:29:29;26.63;;;14.45;;
3755;SDS011;1893;52.526;13.360;2023-03-01T03:31:55;31.75;;;17.08;;
3755;SDS011;1893;52.526;13.360;2023-03-01T03:34:21;32.33;;;16.57;;
3755;SDS011;1893;52.526;13.360;2023-03-01T03:36:48;30.42;;;15.60;;
3755;SDS011;1893;52.526;13.360;2023-03-01T03:39:21;29.17;;;15.57;;
3755;SDS011;1893;52.526;13.360;2023-03-01T03:41:51;27.50;;;16.67;;
3755;SDS011;1893;52.526;13.360;2023-03-01T03:44:17;27.58;;;15.38;;
3755;SDS011;1893;52.526;13.360;2023-03-01T03:46:43;27.27;;;15.00;;
3755;SDS011;1893;52.526;13.360;2023-03-01T03:49:09;27.07;;;17.10;;
3755;SDS011;1893;52.526;13.360;2023-03-01T03:51:34;27.47;;;15.07;;
3755;SDS011;1893;52.526;13.360;2023-03-01T03:54:00;24.90;;;15.33;;
3755;SDS011;1893;52.526;13.360;2023-03-01T03:56:25;23.33;;;15.80;;
3755;SDS011;1893;52.526;13.360;2023-03-01T03:58:51;23.80;;;14.70;;
3755;SDS011;1893;52.526;13.360;2023-03-01T04:01:17;24.85;;;14.73;;
3755;SDS011;1893;52.526;13.360;2023-03-01T04:03:43;23.93;;;15.00;;
3755;SDS011;1893;52.526;13.360;2023-03-01T04:06:14;23.48;;;13.32;;
3755;SDS011;1893;52.526;13.360;2023-03-01T04:08:40;26.00;;;13.93;;
3755;SDS011;1893;52.526;13.360;2023-03-01T04:11:06;24.80;;;15.77;;
3755;SDS011;1893;52.526;13.360;2023-03-01T04:13:51;26.70;;;14.43;;
3755;SDS011;1893;52.526;13.360;2023-03-01T04:16:18;23.45;;;13.95;;
3755;SDS011;1893;52.526;13.360;2023-03-01T04:18:44;23.38;;;14.60;;
3755;SDS011;1893;52.526;13.360;2023-03-01T04:21:10;23.45;;;14.13;;
3755;SDS011;1893;52.526;13.360;2023-03-01T04:23:36;26.15;;;15.23;;
3755;SDS011;1893;52.526;13.360;2023-03-01T04:26:02;21.87;;;13.40;;
3755;SDS011;1893;52.526;13.360;2023-03-01T04:28:36;25.95;;;13.23;;
3755;SDS011;1893;52.526;13.360;2023-03-01T04:31:06;27.23;;;14.77;;
3755;SDS011;1893;52.526;13.360;2023-03-01T04:33:41;29.42;;;14.43;;
3755;SDS011;1893;52.526;13.360;2023-03-01T04:36:08;22.50;;;13.77;;
3755;SDS011;1893;52.526;13.360;2023-03-01T04:38:35;24.80;;;13.82;;
3755;SDS011;1893;52.526;13.360;2023-03-01T04:41:02;31.20;;;14.30;;
3755;SDS011;1893;52.526;13.360;2023-03-01T04:43:29;24.08;;;13.88;;
3755;SDS011;1893;52.526;13.360;2023-03-01T04:45:59;25.50;;;14.63;;
3755;SDS011;1893;52.526;13.360;2023-03-01T04:48:31;26.43;;;13.73;;
3755;SDS011;1893;52.526;13.360;2023-03-01T04:50:58;22.07;;;13.20;;
3755;SDS011;1893;52.526;13.360;2023-03-01T04:53:24;25.90;;;14.00;;
3755;SDS011;1893;52.526;13.360;2023-03-01T04:55:50;23.57;;;14.50;;
3755;SDS011;1893;52.526;13.360;2023-03-01T04:58:15;25.00;;;14.20;;
3755;SDS011;1893;52.526;13.360;2023-03-01T05:00:41;23.07;;;13.30;;
3755;SDS011;1893;52.526;13.360;2023-03-01T05:03:07;34.47;;;14.33;;
3755;SDS011;1893;52.526;13.360;2023-03-01T05:05:34;25.02;;;14.48;;
3755;SDS011;1893;52.526;13.360;2023-03-01T05:08:03;29.33;;;15.02;;
3755;SDS011;1893;52.526;13.360;2023-03-01T05:10:31;28.48;;;14.60;;
3755;SDS011;1893;52.526;13.360;2023-03-01T05:13:00;26.70;;;14.73;;
3755;SDS011;1893;52.526;13.360;2023-03-01T05:15:26;33.13;;;16.08;;
3755;SDS011;1893;52.526;13.360;2023-03-01T05:17:53;20.85;;;13.18;;
3755;SDS011;1893;52.526;13.360;2023-03-01T05:20:20;32.42;;;15.70;;
3755;SDS011;1893;52.526;13.360;2023-03-01T05:22:49;30.58;;;14.07;;
3755;SDS011;1893;52.526;13.360;2023-03-01T05:25:16;29.23;;;16.40;;
3755;SDS011;1893;52.526;13.360;2023-03-01T05:27:42;24.43;;;15.40;;
3755;SDS011;1893;52.526;13.360;2023-03-01T05:30:08;31.07;;;15.17;;
3755;SDS011;1893;52.526;13.360;2023-03-01T05:32:44;29.13;;;15.30;;
3755;SDS011;1893;52.526;13.360;2023-03-01T05:35:12;31.92;;;16.17;;
3755;SDS011;1893;52.526;13.360;2023-03-01T05:37:39;26.58;;;14.00;;
3755;SDS011;1893;52.526;13.360;2023-03-01T05:40:06;19.90;;;14.97;;
3755;SDS011;1893;52.526;13.360;2023-03-01T05:42:40;33.95;;;17.33;;
3755;SDS011;1893;52.526;13.360;2023-03-01T05:45:09;27.47;;;15.50;;
3755;SDS011;1893;52.526;13.360;2023-03-01T05:47:37;26.63;;;16.27;;
3755;SDS011;1893;52.526;13.360;2023-03-01T05:50:04;30.52;;;15.77;;
3755;SDS011;1893;52.526;13.360;2023-03-01T05:52:32;30.83;;;17.58;;
3755;SDS011;1893;52.526;13.360;2023-03-01T05:54:57;27.93;;;14.97;;
3755;SDS011;1893;52.526;13.360;2023-03-01T05:57:23;32.63;;;18.23;;
3755;SDS011;1893;52.526;13.360;2023-03-01T05:59:49;29.30;;;16.57;;
3755;SDS011;1893;52.526;13.360;2023-03-01T06:02:14;27.57;;;18.07;;
3755;SDS011;1893;52.526;13.360;2023-03-01T06:04:40;36.30;;;19.53;;
3755;SDS011;1893;52.526;13.360;2023-03-01T06:07:05;26.80;;;17.50;;
3755;SDS011;1893;52.526;13.360;2023-03-01T06:09:31;27.60;;;16.37;;
3755;SDS011;1893;52.526;13.360;2023-03-01T06:11:56;26.27;;;16.80;;
3755;SDS011;1893;52.526;13.360;2023-03-01T06:14:22;30.47;;;16.90;;
3755;SDS011;1893;52.526;13.360;2023-03-01T06:16:47;32.90;;;17.77;;
3755;SDS011;1893;52.526;13.360;2023-03-01T06:19:13;31.23;;;17.00;;
3755;SDS011;1893;52.526;13.360;2023-03-01T06:21:39;23.93;;;14.97;;
3755;SDS011;1893;52.526;13.360;2023-03-01T06:24:04;26.13;;;15.00;;
3755;SDS011;1893;52.526;13.360;2023-03-01T06:26:32;25.33;;;15.50;;
3755;SDS011;1893;52.526;13.360;2023-03-01T06:28:57;29.07;;;16.33;;
3755;SDS011;1893;52.526;13.360;2023-03-01T06:31:23;27.20;;;15.73;;
3755;SDS011;1893;52.526;13.360;2023-03-01T06:33:49;30.43;;;16.63;;
3755;SDS011;1893;52.526;13.360;2023-03-01T06:36:14;26.77;;;15.13;;
3755;SDS011;1893;52.526;13.360;2023-03-01T06:38:43;33.75;;;16.42;;
3755;SDS011;1893;52.526;13.360;2023-03-01T06:41:09;29.70;;;16.27;;
3755;SDS011;1893;52.526;13.360;2023-03-01T06:43:35;27.77;;;16.10;;
3755;SDS011;1893;52.526;13.360;2023-03-01T06:46:03;25.37;;;15.40;;
3755;SDS011;1893;52.526;13.360;2023-03-01T06:48:30;34.50;;;16.03;;
3755;SDS011;1893;52.526;13.360;2023-03-01T06:50:57;30.47;;;15.73;;
3755;SDS011;1893;52.526;13.360;2023-03-01T06:53:24;32.90;;;17.80;;
3755;SDS011;1893;52.526;13.360;2023-03-01T06:55:56;29.40;;;15.90;;
3755;SDS011;1893;52.526;13.360;2023-03-01T06:58:22;30.67;;;17.00;;
3755;SDS011;1893;52.526;13.360;2023-03-01T07:00:48;34.60;;;17.43;;
3755;SDS011;1893;52.526;13.360;2023-03-01T07:03:14;35.70;;;16.97;;
3755;SDS011;1893;52.526;13.360;2023-03-01T07:05:39;33.60;;;17.27;;
3755;SDS011;1893;52.526;13.360;2023-03-01T07:08:05;27.17;;;16.47;;
3755;SDS011;1893;52.526;13.360;2023-03-01T07:10:31;26.77;;;16.50;;
3755;SDS011;1893;52.526;13.360;2023-03-01T07:12:57;32.53;;;16.30;;
3755;SDS011;1893;52.526;13.360;2023-03-01T07:15:23;29.80;;;17.27;;
3755;SDS011;1893;52.526;13.360;2023-03-01T07:17:49;27.57;;;18.10;;
3755;SDS011;1893;52.526;13.360;2023-03-01T07:20:16;37.27;;;19.10;;
3755;SDS011;1893;52.526;13.360;2023-03-01T07:22:42;31.77;;;17.30;;
3755;SDS011;1893;52.526;13.360;2023-03-01T07:25:09;28.80;;;19.33;;
3755;SDS011;1893;52.526;13.360;2023-03-01T07:27:35;30.30;;;19.23;;
3755;SDS011;1893;52.526;13.360;2023-03-01T07:30:00;26.40;;;18.07;;
3755;SDS011;1893;52.526;13.360;2023-03-01T07:32:26;25.40;;;18.97;;
3755;SDS011;1893;52.526;13.360;2023-03-01T07:34:51;28.93;;;18.87;;
3755;SDS011;1893;52.526;13.360;2023-03-01T07:37:17;30.40;;;18.60;;
3755;SDS011;1893;52.526;13.360;2023-03-01T07:39:43;26.77;;;18.80;;
3755;SDS011;1893;52.526;13.360;2023-03-01T07:42:08;30.10;;;18.73;;
3755;SDS011;1893;52.526;13.360;2023-03-01T07:44:34;28.90;;;17.90;;
3755;SDS011;1893;52.526;13.360;2023-03-01T07:47:00;32.17;;;18.50;;
3755;SDS011;1893;52.526;13.360;2023-03-01T07:49:26;20.77;;;15.00;;
3755;SDS011;1893;52.526;13.360;2023-03-01T07:51:52;25.03;;;17.30;;
3755;SDS011;1893;52.526;13.360;2023-03-01T07:54:18;25.47;;;16.93;;
3755;SDS011;1893;52.526;13.360;2023-03-01T07:56:43;25.30;;;15.00;;
3755;SDS011;1893;52.526;13.360;2023-03-01T07:59:09;21.03;;;14.30;;
3755;SDS011;1893;52.526;13.360;2023-03-01T08:01:34;18.63;;;13.67;;
3755;SDS011;1893;52.526;13.360;2023-03-01T08:04:00;24.40;;;13.77;;
3755;SDS011;1893;52.526;13.360;2023-03-01T08:06:26;18.93;;;13.77;;
3755;SDS011;1893;52.526;13.360;2023-03-01T08:08:52;18.10;;;13.40;;
3755;SDS011;1893;52.526;13.360;2023-03-01T08:11:20;24.77;;;15.40;;
3755;SDS011;1893;52.526;13.360;2023-03-01T08:13:49;19.87;;;14.23;;
3755;SDS011;1893;52.526;13.360;2023-03-01T08:16:15;19.20;;;13.60;;
3755;SDS011;1893;52.526;13.360;2023-03-01T08:18:41;27.50;;;15.10;;
3755;SDS011;1893;52.526;13.360;2023-03-01T08:21:12;24.77;;;13.77;;
3755;SDS011;1893;52.526;13.360;2023-03-01T08:23:39;19.97;;;13.33;;
3755;SDS011;1893;52.526;13.360;2023-03-01T08:26:09;15.67;;;10.10;;
3755;SDS011;1893;52.526;13.360;2023-03-01T08:28:37;16.10;;;9.47;;
3755;SDS011;1893;52.526;13.360;2023-03-01T08:31:04;15.90;;;10.00;;
3755;SDS011;1893;52.526;13.360;2023-03-01T08:33:42;14.83;;;8.93;;
3755;SDS011;1893;52.526;13.360;2023-03-01T08:36:08;11.40;;;9.43;;
3755;SDS011;1893;52.526;13.360;2023-03-01T08:38:34;9.37;;;7.10;;
3755;SDS011;1893;52.526;13.360;2023-03-01T08:41:01;11.03;;;7.40;;
3755;SDS011;1893;52.526;13.360;2023-03-01T08:43:28;17.67;;;7.47;;
3755;SDS011;1893;52.526;13.360;2023-03-01T08:45:54;10.00;;;7.30;;
3755;SDS011;1893;52.526;13.360;2023-03-01T08:48:19;7.90;;;5.23;;
3755;SDS011;1893;52.526;13.360;2023-03-01T08:50:46;9.47;;;5.90;;
3755;SDS011;1893;52.526;13.360;2023-03-01T08:53:11;12.50;;;6.40;;
3755;SDS011;1893;52.526;13.360;2023-03-01T08:55:37;6.60;;;5.90;;
3755;SDS011;1893;52.526;13.360;2023-03-01T08:58:02;9.03;;;6.40;;
3755;SDS011;1893;52.526;13.360;2023-03-01T09:00:28;9.10;;;7.57;;
3755;SDS011;1893;52.526;13.360;2023-03-01T09:02:54;12.27;;;6.97;;
3755;SDS011;1893;52.526;13.360;2023-03-01T09:05:19;10.00;;;6.83;;
3755;SDS011;1893;52.526;13.360;2023-03-01T09:07:45;14.27;;;6.40;;
3755;SDS011;1893;52.526;13.360;2023-03-01T09:10:10;16.10;;;6.67;;
3755;SDS011;1893;52.526;13.360;2023-03-01T09:12:36;9.10;;;6.43;;
3755;SDS011;1893;52.526;13.360;2023-03-01T09:15:02;13.23;;;6.37;;
3755;SDS011;1893;52.526;13.360;2023-03-01T09:17:28;9.37;;;5.53;;
3755;SDS011;1893;52.526;13.360;2023-03-01T09:19:53;12.07;;;6.73;;
3755;SDS011;1893;52.526;13.360;2023-03-01T09:22:19;14.37;;;6.37;;
3755;SDS011;1893;52.526;13.360;2023-03-01T09:24:44;8.37;;;6.10;;
3755;SDS011;1893;52.526;13.360;2023-03-01T09:27:10;12.37;;;6.43;;
3755;SDS011;1893;52.526;13.360;2023-03-01T09:29:37;11.30;;;5.83;;
3755;SDS011;1893;52.526;13.360;2023-03-01T09:32:03;17.40;;;6.80;;
3755;SDS011;1893;52.526;13.360;2023-03-01T09:34:29;9.00;;;5.73;;
3755;SDS011;1893;52.526;13.360;2023-03-01T09:36:56;11.00;;;6.40;;
3755;SDS011;1893;52.526;13.360;2023-03-01T09:39:22;10.63;;;7.00;;
3755;SDS011;1893;52.526;13.360;2023-03-01T09:46:56;10.87;;;7.60;;
3755;SDS011;1893;52.526;13.360;2023-03-01T09:49:23;10.87;;;6.90;;
3755;SDS011;1893;52.526;13.360;2023-03-01T09:52:02;9.70;;;7.00;;
3755;SDS011;1893;52.526;13.360;2023-03-01T09:54:46;11.37;;;6.17;;
3755;SDS011;1893;52.526;13.360;2023-03-01T09:57:46;9.40;;;6.00;;
3755;SDS011;1893;52.526;13.360;2023-03-01T10:11:22;7.80;;;6.57;;
3755;SDS011;1893;52.526;13.360;2023-03-01T10:13:56;9.63;;;7.43;;
3755;SDS011;1893;52.526;13.360;2023-03-01T10:16:41;8.07;;;5.33;;
3755;SDS011;1893;52.526;13.360;2023-03-01T10:19:17;6.77;;;6.00;;
3755;SDS011;1893;52.526;13.360;2023-03-01T10:21:50;9.80;;;6.90;;
3755;SDS011;1893;52.526;13.360;2023-03-01T10:24:17;6.27;;;5.67;;
3755;SDS011;1893;52.526;13.360;2023-03-01T10:26:55;9.23;;;5.63;;
3755;SDS011;1893;52.526;13.360;2023-03-01T10:29:25;9.30;;;6.00;;
3755;SDS011;1893;52.526;13.360;2023-03-01T10:31:59;9.33;;;6.00;;
3755;SDS011;1893;52.526;13.360;2023-03-01T10:34:33;11.33;;;4.90;;
3755;SDS011;1893;52.526;13.360;2023-03-01T10:37:14;8.77;;;5.60;;
3755;SDS011;1893;52.526;13.360;2023-03-01T10:42:35;11.27;;;4.97;;
3755;SDS011;1893;52.526;13.360;2023-03-01T10:50:38;4.63;;;4.13;;
3755;SDS011;1893;52.526;13.360;2023-03-01T10:58:37;6.03;;;4.07;;
3755;SDS011;1893;52.526;13.360;2023-03-01T11:01:05;3.97;;;3.20;;
3755;SDS011;1893;52.526;13.360;2023-03-01T11:06:57;6.60;;;3.30;;
3755;SDS011;1893;52.526;13.360;2023-03-01T11:09:24;6.10;;;3.50;;
3755;SDS011;1893;52.526;13.360;2023-03-01T11:11:53;4.40;;;2.87;;
3755;SDS011;1893;52.526;13.360;2023-03-01T11:14:25;3.33;;;2.63;;
3755;SDS011;1893;52.526;13.360;2023-03-01T11:17:15;3.53;;;2.77;;
3755;SDS011;1893;52.526;13.360;2023-03-01T11:23:01;5.67;;;3.03;;
3755;SDS011;1893;52.526;13.360;2023-03-01T11:25:33;5.00;;;2.70;;
3755;SDS011;1893;52.526;13.360;2023-03-01T11:28:03;5.13;;;3.50;;
3755;SDS011;1893;52.526;13.360;2023-03-01T11:30:40;4.30;;;2.90;;
3755;SDS011;1893;52.526;13.360;2023-03-01T11:33:17;5.00;;;3.03;;
3755;SDS011;1893;52.526;13.360;2023-03-01T11:36:10;7.37;;;3.47;;
3755;SDS011;1893;52.526;13.360;2023-03-01T11:38:51;8.90;;;3.43;;
3755;SDS011;1893;52.526;13.360;2023-03-01T11:41:20;3.67;;;2.70;;
3755;SDS011;1893;52.526;13.360;2023-03-01T11:43:57;5.00;;;3.77;;
3755;SDS011;1893;52.526;13.360;2023-03-01T11:57:47;7.50;;;3.30;;
3755;SDS011;1893;52.526;13.360;2023-03-01T12:37:03;4.57;;;3.30;;
3755;SDS011;1893;52.526;13.360;2023-03-01T12:50:44;5.53;;;2.97;;
3755;SDS011;1893;52.526;13.360;2023-03-01T12:55:49;6.60;;;3.73;;
3755;SDS011;1893;52.526;13.360;2023-03-01T13:01:07;6.70;;;2.93;;
3755;SDS011;1893;52.526;13.360;2023-03-01T13:15:24;5.27;;;3.50;;
3755;SDS011;1893;52.526;13.360;2023-03-01T13:20:17;2.97;;;2.53;;
3755;SDS011;1893;52.526;13.360;2023-03-01T13:22:47;2.77;;;2.20;;
3755;SDS011;1893;52.526;13.360;2023-03-01T13:25:25;2.90;;;2.40;;
3755;SDS011;1893;52.526;13.360;2023-03-01T13:27:50;3.50;;;3.20;;
3755;SDS011;1893;52.526;13.360;2023-03-01T13:33:33;8.30;;;3.07;;
3755;SDS011;1893;52.526;13.360;2023-03-01T13:42:25;4.17;;;2.80;;
3755;SDS011;1893;52.526;13.360;2023-03-01T13:46:50;6.10;;;3.40;;
3755;SDS011;1893;52.526;13.360;2023-03-01T13:49:18;3.17;;;2.87;;
3755;SDS011;1893;52.526;13.360;2023-03-01T13:51:47;4.00;;;2.70;;
3755;SDS011;1893;52.526;13.360;2023-03-01T13:54:20;4.03;;;2.70;;
3755;SDS011;1893;52.526;13.360;2023-03-01T13:56:54;3.53;;;2.97;;
3755;SDS011;1893;52.526;13.360;2023-03-01T13:59:21;3.23;;;2.70;;
3755;SDS011;1893;52.526;13.360;2023-03-01T14:01:51;3.70;;;2.43;;
3755;SDS011;1893;52.526;13.360;2023-03-01T14:04:20;3.00;;;1.70;;
3755;SDS011;1893;52.526;13.360;2023-03-01T14:07:09;5.90;;;1.73;;
3755;SDS011;1893;52.526;13.360;2023-03-01T14:09:43;4.40;;;1.90;;
3755;SDS011;1893;52.526;13.360;2023-03-01T14:20:29;2.13;;;1.50;;
3755;SDS011;1893;52.526;13.360;2023-03-01T14:22:58;2.30;;;1.70;;
3755;SDS011;1893;52.526;13.360;2023-03-01T14:25:33;1.90;;;1.70;;
3755;SDS011;1893;52.526;13.360;2023-03-01T14:28:04;2.70;;;1.93;;
3755;SDS011;1893;52.526;13.360;2023-03-01T14:30:50;5.43;;;2.20;;
3755;SDS011;1893;52.526;13.360;2023-03-01T14:33:27;4.10;;;1.80;;
3755;SDS011;1893;52.526;13.360;2023-03-01T14:36:00;2.87;;;2.30;;
3755;SDS011;1893;52.526;13.360;2023-03-01T14:38:31;3.30;;;2.10;;
3755;SDS011;1893;52.526;13.360;2023-03-01T14:40:58;6.17;;;2.13;;
3755;SDS011;1893;52.526;13.360;2023-03-01T14:43:26;2.23;;;1.80;;
3755;SDS011;1893;52.526;13.360;2023-03-01T14:45:54;7.00;;;1.70;;
3755;SDS011;1893;52.526;13.360;2023-03-01T14:48:20;2.93;;;1.80;;
3755;SDS011;1893;52.526;13.360;2023-03-01T14:50:46;5.53;;;2.63;;
3755;SDS011;1893;52.526;13.360;2023-03-01T14:53:23;3.17;;;1.97;;
3755;SDS011;1893;52.526;13.360;2023-03-01T14:55:55;4.87;;;2.30;;
3755;SDS011;1893;52.526;13.360;2023-03-01T14:58:27;2.87;;;2.03;;
3755;SDS011;1893;52.526;13.360;2023-03-01T15:00:53;3.67;;;1.90;;
3755;SDS011;1893;52.526;13.360;2023-03-01T15:05:58;3.03;;;1.77;;
3755;SDS011;1893;52.526;13.360;2023-03-01T15:08:25;3.30;;;1.77;;
3755;SDS011;1893;52.526;13.360;2023-03-01T15:13:25;1.70;;;1.60;;
3755;SDS011;1893;52.526;13.360;2023-03-01T15:18:48;10.83;;;2.50;;
3755;SDS011;1893;52.526;13.360;2023-03-01T15:21:17;2.07;;;1.67;;
3755;SDS011;1893;52.526;13.360;2023-03-01T15:23:48;2.57;;;1.67;;
3755;SDS011;1893;52.526;13.360;2023-03-01T15:26:29;3.47;;;2.27;;
3755;SDS011;1893;52.526;13.360;2023-03-01T15:29:00;6.73;;;2.43;;
3755;SDS011;1893;52.526;13.360;2023-03-01T15:31:32;2.90;;;1.80;;
3755;SDS011;1893;52.526;13.360;2023-03-01T15:34:08;1.93;;;1.70;;
3755;SDS011;1893;52.526;13.360;2023-03-01T15:42:07;4.13;;;2.53;;
3755;SDS011;1893;52.526;13.360;2023-03-01T15:44:39;1.87;;;1.60;;
3755;SDS011;1893;52.526;13.360;2023-03-01T15:50:11;4.77;;;2.20;;
3755;SDS011;1893;52.526;13.360;2023-03-01T15:52:43;2.90;;;1.70;;
3755;SDS011;1893;52.526;13.360;2023-03-01T15:55:16;3.40;;;2.33;;
3755;SDS011;1893;52.526;13.360;2023-03-01T15:57:44;2.43;;;1.80;;
3755;SDS011;1893;52.526;13.360;2023-03-01T16:00:10;4.40;;;2.10;;
3755;SDS011;1893;52.526;13.360;2023-03-01T16:02:38;3.60;;;2.50;;
3755;SDS011;1893;52.526;13.360;2023-03-01T16:05:04;2.87;;;2.00;;
3755;SDS011;1893;52.526;13.360;2023-03-01T16:07:30;7.20;;;2.77;;
3755;SDS011;1893;52.526;13.360;2023-03-01T16:09:56;4.40;;;2.93;;
3755;SDS011;1893;52.526;13.360;2023-03-01T16:12:24;7.90;;;3.57;;
3755;SDS011;1893;52.526;13.360;2023-03-01T16:14:50;6.80;;;3.50;;
3755;SDS011;1893;52.526;13.360;2023-03-01T16:17:17;3.17;;;2.10;;
3755;SDS011;1893;52.526;13.360;2023-03-01T16:19:43;6.40;;;2.70;;
3755;SDS011;1893;52.526;13.360;2023-03-01T16:22:09;4.07;;;2.10;;
3755;SDS011;1893;52.526;13.360;2023-03-01T16:24:35;4.30;;;2.10;;
3755;SDS011;1893;52.526;13.360;2023-03-01T16:27:01;4.00;;;2.20;;
3755;SDS011;1893;52.526;13.360;2023-03-01T16:29:27;4.30;;;2.27;;
3755;SDS011;1893;52.526;13.360;2023-03-01T16:31:54;12.70;;;2.30;;
3755;SDS011;1893;52.526;13.360;2023-03-01T16:34:19;3.57;;;2.17;;
3755;SDS011;1893;52.526;13.360;2023-03-01T16:36:46;3.20;;;2.20;;
3755;SDS011;1893;52.526;13.360;2023-03-01T16:39:12;9.73;;;2.77;;
3755;SDS011;1893;52.526;13.360;2023-03-01T16:41:38;6.37;;;2.87;;
3755;SDS011;1893;52.526;13.360;2023-03-01T16:44:03;5.90;;;2.37;;
3755;SDS011;1893;52.526;13.360;2023-03-01T16:46:29;2.90;;;2.23;;
3755;SDS011;1893;52.526;13.360;2023-03-01T16:48:55;4.57;;;3.00;;
3755;SDS011;1893;52.526;13.360;2023-03-01T16:51:21;7.47;;;3.20;;
3755;SDS011;1893;52.526;13.360;2023-03-01T16:53:48;6.50;;;2.97;;
3755;SDS011;1893;52.526;13.360;2023-03-01T16:56:14;7.00;;;3.20;;
3755;SDS011;1893;52.526;13.360;2023-03-01T16:58:41;5.33;;;2.33;;
3755;SDS011;1893;52.526;13.360;2023-03-01T17:01:09;4.63;;;3.20;;
3755;SDS011;1893;52.526;13.360;2023-03-01T17:03:38;4.93;;;2.67;;
3755;SDS011;1893;52.526;13.360;2023-03-01T17:06:08;6.53;;;2.47;;
3755;SDS011;1893;52.526;13.360;2023-03-01T17:08:35;28.87;;;13.90;;
3755;SDS011;1893;52.526;13.360;2023-03-01T17:11:03;66.80;;;31.57;;
3755;SDS011;1893;52.526;13.360;2023-03-01T17:13:30;222.80;;;95.90;;
3755;SDS011;1893;52.526;13.360;2023-03-01T17:15:55;106.67;;;46.63;;
3755;SDS011;1893;52.526;13.360;2023-03-01T17:18:21;46.83;;;25.17;;
3755;SDS011;1893;52.526;13.360;2023-03-01T17:20:47;16.23;;;9.03;;
3755;SDS011;1893;52.526;13.360;2023-03-01T17:23:12;24.27;;;13.37;;
3755;SDS011;1893;52.526;13.360;2023-03-01T17:25:42;7.53;;;5.03;;
3755;SDS011;1893;52.526;13.360;2023-03-01T17:28:09;40.40;;;18.13;;
3755;SDS011;1893;52.526;13.360;2023-03-01T17:30:36;8.87;;;3.40;;
3755;SDS011;1893;52.526;13.360;2023-03-01T17:33:02;26.33;;;4.07;;